createdAt,value
2019-04-16T00:02:02.184Z,4.60
2019-04-16T00:07:05.828Z,4.40
2019-04-16T00:12:10.541Z,4.50
2019-04-16T00:16:56.356Z,4.50
2019-04-16T00:22:05.873Z,4.50
2019-04-16T00:26:57.992Z,4.30
2019-04-16T00:31:43.391Z,4.30
2019-04-16T00:36:29.057Z,4.00
2019-04-16T00:41:14.790Z,4.00
2019-04-16T00:46:00.578Z,4.10
2019-04-16T00:50:46.423Z,4.00
2019-04-16T00:55:32.133Z,4.10
2019-04-16T01:00:17.949Z,3.90
2019-04-16T01:05:03.596Z,4.10
2019-04-16T01:09:49.305Z,4.20
2019-04-16T01:14:35.011Z,4.10
2019-04-16T01:19:20.695Z,3.90
2019-04-16T01:24:06.519Z,3.90
2019-04-16T01:28:57.545Z,3.80
2019-04-16T01:34:05.125Z,3.90
2019-04-16T01:39:10.923Z,4.00
2019-04-16T01:43:44.543Z,3.90
2019-04-16T01:48:30.269Z,3.70
2019-04-16T01:53:18.345Z,3.60
2019-04-16T01:58:03.934Z,3.50
2019-04-16T02:02:49.745Z,3.30
2019-04-16T02:07:35.399Z,3.10
2019-04-16T02:12:21.159Z,3.20
2019-04-16T02:17:07.045Z,3.30
2019-04-16T02:21:52.851Z,3.30
2019-04-16T02:26:38.566Z,3.40
2019-04-16T02:31:24.236Z,3.20
2019-04-16T02:36:10.114Z,3.00
2019-04-16T02:40:55.844Z,3.10
2019-04-16T02:45:41.505Z,2.90
2019-04-16T02:50:37.190Z,2.80
2019-04-16T02:55:28.668Z,2.80
2019-04-16T03:00:35.958Z,2.70
2019-04-16T03:05:30.905Z,2.60
2019-04-16T03:10:16.864Z,2.40
2019-04-16T03:15:02.823Z,2.30
2019-04-16T03:19:51.447Z,2.40
2019-04-16T03:24:37.592Z,2.40
2019-04-16T03:29:24.302Z,2.60
2019-04-16T03:34:10.054Z,2.40
2019-04-16T03:38:55.732Z,2.20
2019-04-16T03:43:41.524Z,2.20
2019-04-16T03:48:27.244Z,2.10
2019-04-16T03:53:16.305Z,1.90
2019-04-16T03:58:05.221Z,2.10
2019-04-16T04:02:47.755Z,2.20
2019-04-16T04:07:33.466Z,2.30
2019-04-16T04:12:19.200Z,2.10
2019-04-16T04:17:06.609Z,2.00
2019-04-16T04:21:53.690Z,1.80
2019-04-16T04:26:42.226Z,1.70
2019-04-16T04:31:31.992Z,1.80
2019-04-16T04:36:14.407Z,2.00
2019-04-16T04:41:00.285Z,2.00
2019-04-16T04:45:45.986Z,2.10
2019-04-16T04:50:32.379Z,2.00
2019-04-16T04:55:19.057Z,2.00
2019-04-16T05:00:08.394Z,2.20
2019-04-16T05:05:05.548Z,2.20
2019-04-16T05:09:51.321Z,2.20
2019-04-16T05:14:40.139Z,2.00
2019-04-16T05:19:25.954Z,2.00
2019-04-16T05:24:11.688Z,1.90
2019-04-16T05:29:16.561Z,2.20
2019-04-16T05:34:02.245Z,2.30
2019-04-16T05:38:46.766Z,2.20
2019-04-16T05:43:32.685Z,2.80
2019-04-16T05:48:18.523Z,3.50
2019-04-16T05:53:08.369Z,4.10
2019-04-16T05:57:57.924Z,4.60
2019-04-16T06:02:42.527Z,5.10
2019-04-16T06:07:28.289Z,5.50
2019-04-16T06:12:14.133Z,6.20
2019-04-16T06:17:11.438Z,6.60
2019-04-16T06:22:30.040Z,7.00
2019-04-16T06:27:37.645Z,7.30
2019-04-16T06:32:58.741Z,7.60
2019-04-16T06:38:12.538Z,8.00
2019-04-16T06:43:04.785Z,8.30
2019-04-16T06:48:24.422Z,8.70
2019-04-16T06:53:38.487Z,9.00
2019-04-16T06:58:50.231Z,9.40
2019-04-16T07:03:39.400Z,9.80
2019-04-16T07:08:49.790Z,10.20
2019-04-16T07:13:33.158Z,10.50
2019-04-16T07:18:20.733Z,10.90
2019-04-16T07:23:06.297Z,11.20
2019-04-16T07:28:25.685Z,11.60
2019-04-16T07:33:32.002Z,11.90
2019-04-16T07:38:35.204Z,12.40
2019-04-16T07:43:37.391Z,12.70
2019-04-16T07:48:40.683Z,13.00
2019-04-16T07:53:47.133Z,13.10
2019-04-16T07:58:29.408Z,13.10
2019-04-16T08:03:15.092Z,13.60
2019-04-16T08:08:00.811Z,14.10
2019-04-16T08:12:50.142Z,14.10
2019-04-16T08:17:36.011Z,13.90
2019-04-16T08:22:21.886Z,13.60
2019-04-16T08:27:09.888Z,14.40
2019-04-16T08:31:55.720Z,14.60
2019-04-16T08:36:41.616Z,14.30
2019-04-16T08:41:27.896Z,15.30
2019-04-16T08:46:14.078Z,16.60
2019-04-16T08:51:00.122Z,18.00
2019-04-16T08:55:45.789Z,18.30
2019-04-16T09:00:32.790Z,17.50
2019-04-16T09:05:18.542Z,16.70
2019-04-16T09:10:17.462Z,16.30
2019-04-16T09:14:55.882Z,16.90
2019-04-16T09:19:43.250Z,16.80
2019-04-16T09:24:50.763Z,18.20
2019-04-16T09:29:53.938Z,19.40
2019-04-16T09:35:08.099Z,20.20
2019-04-16T09:40:15.487Z,21.00
2019-04-16T09:44:49.288Z,21.50
2019-04-16T09:49:37.597Z,21.70
2019-04-16T09:54:22.526Z,21.90
2019-04-16T09:59:16.768Z,20.70
2019-04-16T10:04:02.565Z,21.00
2019-04-16T10:08:49.588Z,21.50
2019-04-16T10:13:36.240Z,21.90
2019-04-16T10:18:23.208Z,23.00
2019-04-16T10:23:15.186Z,22.90
2019-04-16T10:28:08.062Z,23.00
2019-04-16T10:32:54.834Z,23.00
2019-04-16T10:37:40.950Z,23.20
2019-04-16T10:42:46.630Z,22.70
2019-04-16T10:47:57.653Z,23.10
2019-04-16T10:53:03.350Z,22.80
2019-04-16T10:58:14.176Z,22.90
2019-04-16T11:03:04.333Z,22.70
2019-04-16T11:07:51.163Z,22.60
2019-04-16T11:12:37.074Z,23.20
2019-04-16T11:17:24.790Z,23.60
2019-04-16T11:22:11.472Z,23.90
2019-04-16T11:26:57.710Z,24.10
2019-04-16T11:32:08.431Z,24.70
2019-04-16T11:36:54.659Z,24.40
2019-04-16T11:41:41.023Z,24.30
2019-04-16T11:46:27.256Z,24.70
2019-04-16T11:51:13.162Z,24.60
2019-04-16T11:55:59.281Z,24.10
2019-04-16T12:00:54.934Z,24.40
2019-04-16T12:05:58.389Z,24.60
2019-04-16T12:11:08.424Z,25.40
2019-04-16T12:16:13.464Z,26.50
2019-04-16T12:21:03.958Z,26.70
2019-04-16T12:26:10.558Z,26.80
2019-04-16T12:31:17.189Z,26.90
2019-04-16T12:36:32.191Z,27.20
2019-04-16T12:41:40.866Z,28.00
2019-04-16T12:46:48.708Z,27.60
2019-04-16T12:51:47.823Z,27.20
2019-04-16T12:57:04.568Z,26.90
2019-04-16T13:02:12.211Z,26.80
2019-04-16T13:07:01.832Z,26.40
2019-04-16T13:12:08.461Z,27.90
2019-04-16T13:17:03.417Z,30.20
2019-04-16T13:21:52.904Z,30.10
2019-04-16T13:26:55.943Z,29.00
2019-04-16T13:31:42.037Z,29.10
2019-04-16T13:36:29.430Z,27.50
2019-04-16T13:41:15.524Z,26.50
2019-04-16T13:46:04.102Z,28.50
2019-04-16T13:51:02.142Z,29.30
2019-04-16T13:56:06.778Z,28.30
2019-04-16T14:00:57.739Z,26.10
2019-04-16T14:05:43.746Z,24.80
2019-04-16T14:10:30.107Z,24.80
2019-04-16T14:15:30.836Z,25.10
2019-04-16T14:20:04.187Z,25.50
2019-04-16T14:24:50.390Z,26.60
2019-04-16T14:29:38.971Z,27.00
2019-04-16T14:34:43.291Z,29.30
2019-04-16T14:39:35.701Z,29.40
2019-04-16T14:44:22.792Z,27.80
2019-04-16T14:49:08.824Z,27.80
2019-04-16T14:54:25.650Z,28.70
2019-04-16T14:59:35.244Z,27.50
2019-04-16T15:04:45.935Z,27.50
2019-04-16T15:09:40.123Z,27.20
2019-04-16T15:14:31.650Z,26.30
2019-04-16T15:19:36.197Z,25.30
2019-04-16T15:24:36.253Z,24.20
2019-04-16T15:29:56.650Z,23.50
2019-04-16T15:34:43.259Z,22.80
2019-04-16T15:39:42.019Z,21.70
2019-04-16T15:44:46.849Z,21.60
2019-04-16T15:49:40.294Z,20.90
2019-04-16T15:54:56.973Z,20.90
2019-04-16T16:00:13.656Z,21.10
2019-04-16T16:05:27.255Z,20.40
2019-04-16T16:10:17.359Z,19.50
2019-04-16T16:15:07.613Z,19.10
2019-04-16T16:19:51.401Z,18.70
2019-04-16T16:24:41.998Z,18.60
2019-04-16T16:29:27.298Z,18.20
2019-04-16T16:34:14.348Z,17.90
2019-04-16T16:39:00.103Z,17.80
2019-04-16T16:43:47.033Z,17.90
2019-04-16T16:48:33.047Z,17.70
2019-04-16T16:53:33.792Z,17.80
2019-04-16T16:58:41.376Z,17.70
2019-04-16T17:03:53.100Z,17.50
2019-04-16T17:08:39.947Z,17.40
2019-04-16T17:13:25.796Z,17.20
2019-04-16T17:18:11.627Z,17.00
2019-04-16T17:22:58.343Z,16.80
2019-04-16T17:27:51.179Z,16.50
2019-04-16T17:32:31.700Z,16.30
2019-04-16T17:37:36.817Z,16.10
2019-04-16T17:42:28.954Z,15.90
2019-04-16T17:47:51.782Z,15.60
2019-04-16T17:52:44.653Z,15.30
2019-04-16T17:57:38.400Z,15.00
2019-04-16T18:02:47.522Z,14.90
2019-04-16T18:07:52.517Z,14.80
2019-04-16T18:13:00.667Z,14.50
2019-04-16T18:18:01.974Z,14.30
2019-04-16T18:23:07.011Z,14.20
2019-04-16T18:28:05.394Z,14.00
2019-04-16T18:33:07.508Z,13.90
2019-04-16T18:38:00.182Z,13.70
2019-04-16T18:42:53.533Z,13.60
2019-04-16T18:47:44.038Z,13.60
2019-04-16T18:52:29.794Z,13.50
2019-04-16T18:57:15.942Z,13.40
2019-04-16T19:02:22.359Z,13.40
2019-04-16T19:07:08.556Z,13.50
2019-04-16T19:11:54.690Z,13.40
2019-04-16T19:16:40.394Z,13.30
2019-04-16T19:21:30.845Z,13.20
2019-04-16T19:26:16.653Z,13.40
2019-04-16T19:31:03.271Z,13.30
2019-04-16T19:35:51.882Z,13.10
2019-04-16T19:40:36.567Z,13.10
2019-04-16T19:45:23.187Z,13.20
2019-04-16T19:50:09.716Z,13.20
2019-04-16T19:54:56.091Z,13.10
2019-04-16T19:59:46.362Z,13.00
2019-04-16T20:04:31.042Z,12.70
2019-04-16T20:09:17.669Z,12.80
2019-04-16T20:14:04.032Z,12.70
2019-04-16T20:18:51.506Z,12.60
2019-04-16T20:23:38.696Z,12.70
2019-04-16T20:28:24.724Z,12.60
2019-04-16T20:33:10.917Z,12.60
2019-04-16T20:37:57.012Z,12.50
2019-04-16T20:42:43.256Z,12.60
2019-04-16T20:47:29.367Z,12.50
2019-04-16T20:52:15.273Z,12.10
2019-04-16T20:57:01.279Z,12.00
2019-04-16T21:01:47.157Z,11.80
2019-04-16T21:06:33.140Z,11.60
2019-04-16T21:11:18.907Z,11.40
2019-04-16T21:16:04.689Z,11.20
2019-04-16T21:20:51.218Z,11.10
2019-04-16T21:25:37.861Z,11.20
2019-04-16T21:30:23.763Z,11.10
2019-04-16T21:35:15.490Z,10.90
2019-04-16T21:40:02.623Z,10.90
2019-04-16T21:44:48.440Z,10.60
2019-04-16T21:49:39.048Z,10.30
2019-04-16T21:54:21.550Z,10.30
2019-04-16T21:59:07.615Z,10.10
2019-04-16T22:03:58.974Z,10.00
2019-04-16T22:08:44.740Z,9.80
2019-04-16T22:13:30.360Z,9.70
2019-04-16T22:18:16.162Z,10.00
2019-04-16T22:23:01.888Z,10.00
2019-04-16T22:27:47.570Z,9.90
2019-04-16T22:32:33.249Z,9.70
2019-04-16T22:37:19.067Z,9.50
2019-04-16T22:42:12.111Z,9.40
2019-04-16T22:47:03.116Z,9.30
2019-04-16T22:51:48.852Z,9.30
2019-04-16T22:56:52.209Z,9.20
2019-04-16T23:01:41.735Z,9.10
2019-04-16T23:06:26.398Z,9.10
2019-04-16T23:11:12.161Z,9.20
2019-04-16T23:15:57.951Z,9.30
2019-04-16T23:20:44.847Z,9.70
2019-04-16T23:25:30.601Z,10.00
2019-04-16T23:30:18.466Z,10.10
2019-04-16T23:35:09.763Z,10.00
2019-04-16T23:39:51.354Z,10.00
2019-04-16T23:44:58.667Z,10.00
2019-04-16T23:49:58.724Z,10.00
2019-04-16T23:54:52.554Z,10.00
2019-04-16T23:59:53.358Z,10.10
